Time;durP1;ratioP1;P1;durP2;ratioP2;P2;SDS_P1;SDS_P2;PMS_P1;PMS_P2;Temp;Humidity;BMP_temperature;BMP_pressure;BME280_temperature;BME280_humidity;BME280_pressure;Samples;Min_cycle;Max_cycle;Signal;HPM_P1;HPM_P2
2022/01/14 00:01:08;;;;;;;35.75;17.40;;;5.50;99.90;;;;;;5062104;28;20048;-52
2022/01/14 00:03:34;;;;;;;33.13;17.17;;;5.50;99.90;;;;;;5062032;28;20102;-53
2022/01/14 00:05:59;;;;;;;36.75;18.08;;;5.30;99.90;;;;;;5061277;28;20143;-53
2022/01/14 00:08:27;;;;;;;33.15;16.25;;;5.40;99.90;;;;;;5061043;28;20071;-50
2022/01/14 00:10:55;;;;;;;25.45;13.80;;;;;;;;;;5060987;28;20035;-51
2022/01/14 00:16:06;;;;;;;29.52;14.60;;;5.50;99.90;;;;;;5059165;28;20542;-51
2022/01/14 00:18:32;;;;;;;27.42;14.70;;;5.20;99.90;;;;;;5059099;28;20033;-50
2022/01/14 00:21:00;;;;;;;24.95;13.82;;;5.50;99.90;;;;;;5063174;28;20078;-53
2022/01/14 00:23:37;;;;;;;30.67;13.95;;;5.50;99.90;;;;;;5064857;28;20492;-50
2022/01/14 00:31:42;;;;;;;34.67;14.48;;;5.40;99.90;;;;;;5062203;28;20447;-52
2022/01/14 00:34:08;;;;;;;35.42;15.18;;;5.40;99.90;;;;;;5064883;28;20141;-51
2022/01/14 00:36:34;;;;;;;27.65;14.77;;;5.30;99.90;;;;;;5062000;28;20564;-53
2022/01/14 00:39:00;;;;;;;28.10;14.40;;;5.40;99.90;;;;;;5065808;28;20135;-49
2022/01/14 00:41:27;;;;;;;35.60;15.73;;;5.30;99.90;;;;;;5064435;28;20125;-51
2022/01/14 00:44:00;;;;;;;36.28;17.30;;;;;;;;;;5065022;28;20056;-53
2022/01/14 00:46:26;;;;;;;35.47;15.02;;;5.50;99.90;;;;;;5064790;28;20051;-50
2022/01/14 00:48:53;;;;;;;36.90;15.52;;;5.40;99.90;;;;;;5065433;28;20049;-51
2022/01/14 00:51:19;;;;;;;34.92;16.35;;;5.50;99.90;;;;;;5065706;28;20032;-48
2022/01/14 00:53:45;;;;;;;30.77;15.93;;;5.50;99.90;;;;;;5065614;28;20066;-51
2022/01/14 00:56:27;;;;;;;33.70;15.95;;;;;;;;;;5065147;28;20047;-53
2022/01/14 00:59:14;;;;;;;25.83;15.68;;;5.50;99.90;;;;;;5064615;28;20053;-49
2022/01/14 01:01:43;;;;;;;31.90;16.58;;;5.30;99.90;;;;;;5062590;28;20382;-53
2022/01/14 01:04:14;;;;;;;29.60;16.17;;;5.40;99.90;;;;;;5064329;28;20432;-52
2022/01/14 01:06:41;;;;;;;32.83;16.02;;;5.30;99.90;;;;;;5063561;28;20044;-48
2022/01/14 01:09:12;;;;;;;30.88;16.45;;;5.40;99.90;;;;;;5064451;28;20044;-50
2022/01/14 01:12:08;;;;;;;26.52;15.80;;;5.30;99.90;;;;;;5064847;28;20044;-52
2022/01/14 01:14:46;;;;;;;30.60;15.15;;;5.30;99.90;;;;;;5060691;28;20143;-51
2022/01/14 01:17:12;;;;;;;28.73;15.98;;;5.20;99.90;;;;;;5064924;28;20055;-50
2022/01/14 01:19:37;;;;;;;37.53;15.63;;;5.30;99.90;;;;;;5061573;28;20033;-48
2022/01/14 01:22:03;;;;;;;41.05;17.27;;;5.30;99.90;;;;;;5064649;28;20044;-52
2022/01/14 01:24:29;;;;;;;37.78;16.52;;;;;;;;;;5063955;28;20044;-53
2022/01/14 01:26:58;;;;;;;35.20;15.15;;;5.20;99.90;;;;;;5064844;28;20044;-51
2022/01/14 01:31:49;;;;;;;39.83;18.70;;;5.20;99.90;;;;;;5063793;28;20124;-52
2022/01/14 01:34:21;;;;;;;35.88;17.00;;;5.30;99.90;;;;;;5064164;28;20740;-53
2022/01/14 01:36:50;;;;;;;33.00;16.20;;;5.30;99.90;;;;;;5063840;28;20754;-52
2022/01/14 01:39:18;;;;;;;37.42;17.98;;;5.40;99.90;;;;;;5064465;28;20103;-53
2022/01/14 01:41:46;;;;;;;37.58;17.60;;;5.20;99.90;;;;;;5061338;28;20750;-53
2022/01/14 01:44:14;;;;;;;47.88;19.35;;;5.50;99.90;;;;;;5063692;28;20087;-52
2022/01/14 01:46:42;;;;;;;31.30;16.25;;;5.40;99.90;;;;;;5063341;28;20111;-52
2022/01/14 01:49:09;;;;;;;35.15;17.25;;;5.30;99.90;;;;;;5062116;28;20603;-52
2022/01/14 01:51:35;;;;;;;37.67;18.15;;;5.50;99.90;;;;;;5046603;28;20040;-50
2022/01/14 01:54:01;;;;;;;41.63;18.55;;;5.40;99.90;;;;;;5063564;28;20044;-53
2022/01/14 01:56:27;;;;;;;38.85;18.67;;;5.40;99.90;;;;;;5063503;28;20040;-52
2022/01/14 01:58:56;;;;;;;45.17;20.65;;;5.40;99.90;;;;;;5063476;28;20059;-50
2022/01/14 02:01:24;;;;;;;37.83;18.15;;;5.50;99.90;;;;;;5062928;28;20074;-50
2022/01/14 02:03:53;;;;;;;42.03;18.38;;;5.50;99.90;;;;;;5062303;28;20501;-52
2022/01/14 02:06:21;;;;;;;39.30;16.83;;;5.40;99.90;;;;;;5062993;28;20056;-53
2022/01/14 02:08:49;;;;;;;32.33;20.15;;;5.50;99.90;;;;;;5063626;28;20037;-49
2022/01/14 02:11:15;;;;;;;32.00;18.77;;;5.40;99.90;;;;;;5065047;28;20488;-54
2022/01/14 02:13:41;;;;;;;43.63;20.08;;;5.70;99.90;;;;;;5062025;28;20082;-53
2022/01/14 02:18:47;;;;;;;36.88;18.85;;;5.50;99.90;;;;;;5062739;28;20048;-53
2022/01/14 02:26:50;;;;;;;39.40;17.50;;;5.60;99.90;;;;;;5061999;28;20091;-52
2022/01/14 02:29:20;;;;;;;36.22;19.35;;;5.40;99.90;;;;;;5062898;28;20125;-49
2022/01/14 02:31:46;;;;;;;38.55;18.70;;;;;;;;;;5062036;28;20248;-52
2022/01/14 02:34:14;;;;;;;37.70;19.20;;;5.70;99.90;;;;;;5062796;28;20094;-54
2022/01/14 02:36:41;;;;;;;34.92;18.35;;;5.50;99.90;;;;;;5063674;28;20051;-48
2022/01/14 02:39:09;;;;;;;35.00;18.73;;;5.60;99.90;;;;;;5060716;28;20045;-48
2022/01/14 02:41:38;;;;;;;32.97;18.80;;;5.70;99.90;;;;;;5061512;28;20045;-52
2022/01/14 02:44:05;;;;;;;36.97;19.92;;;5.60;99.90;;;;;;5061758;28;20123;-50
2022/01/14 02:46:37;;;;;;;33.95;18.58;;;5.60;99.90;;;;;;5062635;28;20524;-52
2022/01/14 02:49:04;;;;;;;35.83;20.60;;;5.60;99.90;;;;;;5061908;28;20123;-53
2022/01/14 02:51:30;;;;;;;39.53;21.45;;;5.70;99.90;;;;;;5062244;28;20051;-50
2022/01/14 02:53:59;;;;;;;39.78;20.52;;;5.60;99.90;;;;;;5061369;28;20043;-53
2022/01/14 02:56:30;;;;;;;43.88;20.17;;;5.60;99.90;;;;;;5061284;28;20435;-51
2022/01/14 02:58:59;;;;;;;39.27;20.30;;;5.50;99.90;;;;;;5061075;28;20139;-50
2022/01/14 03:01:26;;;;;;;38.35;20.50;;;5.70;99.90;;;;;;5062044;28;20279;-52
2022/01/14 03:03:57;;;;;;;41.85;20.08;;;5.70;99.90;;;;;;5062270;28;20032;-52
2022/01/14 03:06:25;;;;;;;41.88;19.13;;;5.60;99.90;;;;;;5060404;28;20037;-51
2022/01/14 03:08:52;;;;;;;41.60;20.17;;;5.70;99.90;;;;;;5061870;28;20401;-54
2022/01/14 03:11:42;;;;;;;36.47;18.80;;;5.60;99.90;;;;;;5061706;28;20508;-52
2022/01/14 03:14:10;;;;;;;37.53;19.98;;;5.70;99.90;;;;;;5061436;28;20165;-50
2022/01/14 03:16:41;;;;;;;40.75;18.48;;;5.70;99.90;;;;;;5062193;28;20497;-52
2022/01/14 03:19:14;;;;;;;35.97;19.83;;;5.80;99.90;;;;;;5062172;28;20161;-50
2022/01/14 03:21:43;;;;;;;46.90;20.48;;;5.70;99.90;;;;;;5063752;28;20105;-51
2022/01/14 03:24:20;;;;;;;39.53;19.05;;;5.80;99.90;;;;;;5062033;28;20041;-52
2022/01/14 03:26:48;;;;;;;35.65;17.95;;;5.60;99.90;;;;;;5060705;28;20032;-53
2022/01/14 03:29:15;;;;;;;41.00;18.90;;;5.60;99.90;;;;;;5060459;28;20068;-53
2022/01/14 03:31:41;;;;;;;38.30;18.23;;;5.60;99.90;;;;;;5062605;28;20081;-52
2022/01/14 03:34:08;;;;;;;36.72;18.30;;;5.70;99.90;;;;;;5061074;28;20496;-52
2022/01/14 03:36:35;;;;;;;44.85;19.00;;;5.60;99.90;;;;;;5061516;28;20123;-53
2022/01/14 03:39:03;;;;;;;41.92;20.75;;;5.70;99.90;;;;;;5061165;28;20401;-53
2022/01/14 03:41:29;;;;;;;35.60;20.05;;;;;;;;;;5061112;28;20044;-53
2022/01/14 03:43:54;;;;;;;44.83;19.95;;;5.60;99.90;;;;;;5060359;28;20071;-50
2022/01/14 03:46:20;;;;;;;44.38;19.70;;;5.70;99.90;;;;;;5060404;28;20068;-50
2022/01/14 03:48:46;;;;;;;41.33;19.38;;;5.70;99.90;;;;;;5061850;28;20033;-49
2022/01/14 03:51:12;;;;;;;36.03;17.83;;;5.60;99.90;;;;;;5062953;28;20044;-52
2022/01/14 03:53:39;;;;;;;46.95;20.70;;;5.60;99.90;;;;;;5060817;28;20322;-54
2022/01/14 03:56:05;;;;;;;40.15;18.13;;;5.70;99.90;;;;;;5064070;28;20128;-52
2022/01/14 03:58:31;;;;;;;41.60;20.02;;;5.50;99.90;;;;;;5066662;28;20049;-52
2022/01/14 04:00:57;;;;;;;35.10;18.10;;;5.50;99.90;;;;;;5065823;28;20040;-51
2022/01/14 04:03:23;;;;;;;36.05;18.80;;;5.60;99.90;;;;;;5067872;28;20040;-52
2022/01/14 04:05:48;;;;;;;34.10;17.98;;;5.60;99.90;;;;;;5068207;28;20040;-57
2022/01/14 04:08:16;;;;;;;43.35;19.27;;;5.70;99.90;;;;;;5067261;28;20120;-52
2022/01/14 04:10:46;;;;;;;40.05;20.38;;;5.50;99.90;;;;;;5066649;28;20024;-50
2022/01/14 04:13:19;;;;;;;37.65;18.15;;;5.70;99.90;;;;;;5066982;28;20473;-50
2022/01/14 04:15:46;;;;;;;33.75;18.33;;;5.60;99.90;;;;;;5066981;28;20036;-50
2022/01/14 04:18:18;;;;;;;35.63;18.77;;;5.60;99.90;;;;;;5064392;28;20047;-49
2022/01/14 04:20:49;;;;;;;31.17;17.83;;;5.60;99.90;;;;;;5065956;28;20078;-53
2022/01/14 04:23:20;;;;;;;32.10;18.65;;;5.90;99.90;;;;;;5064704;28;20047;-51
2022/01/14 04:25:51;;;;;;;41.80;20.08;;;5.60;99.90;;;;;;5068772;28;20048;-53
2022/01/14 04:28:18;;;;;;;37.25;18.58;;;5.70;99.90;;;;;;5069145;28;20046;-52
2022/01/14 04:30:46;;;;;;;39.80;20.83;;;5.60;99.90;;;;;;5065604;28;20033;-51
2022/01/14 04:33:14;;;;;;;36.50;19.77;;;5.60;99.90;;;;;;5066778;28;20048;-53
2022/01/14 04:35:40;;;;;;;31.75;19.35;;;5.60;99.90;;;;;;5069004;28;20467;-52
2022/01/14 04:38:06;;;;;;;30.33;18.27;;;5.50;99.90;;;;;;5068225;28;20127;-53
2022/01/14 04:40:34;;;;;;;37.25;19.17;;;5.50;99.90;;;;;;5067849;28;20036;-52
2022/01/14 04:43:00;;;;;;;31.23;17.88;;;5.60;99.90;;;;;;5067062;28;20416;-50
2022/01/14 04:46:02;;;;;;;38.38;18.90;;;5.40;99.90;;;;;;5067843;28;20050;-54
2022/01/14 04:48:17;;;;;;;42.78;19.05;;;5.40;99.90;;;;;;5068044;28;20412;-52
2022/01/14 04:50:43;;;;;;;37.95;19.02;;;5.40;99.90;;;;;;5065680;28;20064;-52
2022/01/14 04:53:09;;;;;;;38.17;19.15;;;5.40;99.90;;;;;;5068222;28;20039;-52
2022/01/14 04:55:37;;;;;;;34.13;19.02;;;5.30;99.90;;;;;;5066438;28;20382;-51
2022/01/14 04:58:04;;;;;;;35.63;19.77;;;5.30;99.90;;;;;;5067432;28;20684;-53
2022/01/14 05:00:29;;;;;;;38.08;18.95;;;5.40;99.90;;;;;;5067123;28;20195;-51
2022/01/14 05:02:55;;;;;;;37.58;19.85;;;5.50;99.90;;;;;;5065642;28;20564;-53
2022/01/14 05:05:25;;;;;;;32.58;19.27;;;5.50;99.90;;;;;;5066317;28;20036;-54
2022/01/14 05:07:51;;;;;;;44.55;21.13;;;5.40;99.90;;;;;;5063215;28;20036;-50
2022/01/14 05:12:47;;;;;;;36.25;19.65;;;5.40;99.90;;;;;;5064212;28;20067;-54
2022/01/14 05:15:14;;;;;;;40.50;19.42;;;5.50;99.90;;;;;;5064692;28;20489;-51
2022/01/14 05:17:40;;;;;;;35.28;20.05;;;5.50;99.90;;;;;;5061839;28;20044;-52
2022/01/14 05:20:07;;;;;;;38.17;20.00;;;5.50;99.90;;;;;;5065591;28;20146;-52
2022/01/14 05:22:33;;;;;;;39.55;20.38;;;5.40;99.90;;;;;;5064069;28;20041;-53
2022/01/14 05:24:58;;;;;;;37.83;21.05;;;5.50;99.90;;;;;;5062569;28;20374;-50
2022/01/14 05:27:24;;;;;;;34.00;18.38;;;5.50;99.90;;;;;;5064360;28;20490;-54
2022/01/14 05:29:52;;;;;;;38.78;19.88;;;5.40;99.90;;;;;;5064213;28;20115;-51
2022/01/14 05:32:21;;;;;;;32.58;18.95;;;5.40;99.90;;;;;;5064488;28;20048;-53
2022/01/14 05:34:47;;;;;;;36.58;19.23;;;5.50;99.90;;;;;;5064546;28;20381;-52
2022/01/14 05:37:13;;;;;;;34.72;20.55;;;5.40;99.90;;;;;;5064705;28;20086;-53
2022/01/14 05:39:39;;;;;;;38.22;20.10;;;5.50;99.90;;;;;;5063786;28;20685;-53
2022/01/14 05:42:06;;;;;;;38.60;18.98;;;5.40;99.90;;;;;;5065253;28;20072;-52
2022/01/14 05:44:32;;;;;;;31.92;20.27;;;5.50;99.90;;;;;;5062703;28;20036;-52
2022/01/14 05:47:00;;;;;;;38.22;20.02;;;5.30;99.90;;;;;;5063008;28;20040;-51
2022/01/14 05:49:28;;;;;;;34.83;20.33;;;5.40;99.90;;;;;;5063101;28;20043;-54
2022/01/14 05:51:54;;;;;;;33.83;18.95;;;5.50;99.90;;;;;;5066269;28;20040;-51
2022/01/14 05:54:21;;;;;;;45.53;20.98;;;5.50;99.90;;;;;;5064431;28;20033;-53
2022/01/14 05:56:48;;;;;;;32.55;19.20;;;5.60;99.90;;;;;;5063519;28;20044;-53
2022/01/14 05:59:14;;;;;;;43.35;19.80;;;5.50;99.90;;;;;;5064373;28;20067;-52
2022/01/14 06:01:40;;;;;;;31.08;19.65;;;5.50;99.90;;;;;;5062676;28;20045;-51
2022/01/14 06:04:08;;;;;;;31.88;18.20;;;5.40;99.90;;;;;;5064409;28;21390;-52
2022/01/14 06:06:36;;;;;;;34.75;19.05;;;5.50;99.90;;;;;;5064126;28;20521;-54
2022/01/14 06:09:03;;;;;;;35.05;19.33;;;5.60;99.90;;;;;;5064071;28;20037;-53
2022/01/14 06:11:29;;;;;;;42.45;19.08;;;5.50;99.90;;;;;;5063448;28;20576;-53
2022/01/14 06:13:58;;;;;;;36.55;18.67;;;5.50;99.90;;;;;;5062147;28;20129;-54
2022/01/14 06:16:24;;;;;;;40.50;19.63;;;5.30;99.90;;;;;;5063351;28;20036;-54
2022/01/14 06:18:50;;;;;;;31.35;18.38;;;5.50;99.90;;;;;;5061996;28;20696;-52
2022/01/14 06:21:19;;;;;;;31.00;17.38;;;5.60;99.90;;;;;;5062805;28;20712;-51
2022/01/14 06:23:45;;;;;;;36.45;18.13;;;5.60;99.90;;;;;;5063731;28;20048;-52
2022/01/14 06:26:11;;;;;;;32.72;18.08;;;5.50;99.90;;;;;;5062262;28;20041;-53
2022/01/14 06:28:36;;;;;;;38.58;17.45;;;5.60;99.90;;;;;;5062817;28;20097;-52
2022/01/14 06:31:02;;;;;;;32.10;17.70;;;5.60;99.90;;;;;;5061731;28;20071;-49
2022/01/14 06:33:28;;;;;;;35.33;18.80;;;5.60;99.90;;;;;;5062740;28;20036;-52
2022/01/14 06:35:54;;;;;;;37.67;16.58;;;5.60;99.90;;;;;;5062828;28;20045;-53
2022/01/14 06:38:21;;;;;;;40.67;17.77;;;5.50;99.90;;;;;;5063765;28;20113;-51
2022/01/14 06:40:47;;;;;;;34.42;17.42;;;5.60;99.90;;;;;;5062406;28;20032;-53
2022/01/14 06:43:14;;;;;;;27.98;16.88;;;5.50;99.90;;;;;;5062499;28;20075;-53
2022/01/14 06:45:40;;;;;;;34.00;16.88;;;5.60;99.90;;;;;;5060976;28;20028;-54
2022/01/14 06:48:07;;;;;;;32.00;16.38;;;5.60;99.90;;;;;;5063274;28;20477;-53
2022/01/14 06:50:33;;;;;;;32.03;16.60;;;5.70;99.90;;;;;;5062559;28;20116;-52
2022/01/14 06:53:02;;;;;;;37.80;17.55;;;5.50;99.90;;;;;;5063256;28;20132;-52
2022/01/14 06:55:28;;;;;;;35.88;17.98;;;5.60;99.90;;;;;;5061824;28;20037;-53
2022/01/14 06:57:54;;;;;;;31.75;17.50;;;5.50;99.90;;;;;;5060265;28;20398;-52
2022/01/14 07:00:21;;;;;;;34.47;18.15;;;5.70;99.90;;;;;;5060205;28;20109;-54
2022/01/14 07:02:47;;;;;;;29.67;16.40;;;5.60;99.90;;;;;;5061865;28;20516;-54
2022/01/14 07:05:13;;;;;;;30.08;16.27;;;5.60;99.90;;;;;;5062049;28;20075;-53
2022/01/14 07:07:39;;;;;;;37.35;17.20;;;5.60;99.90;;;;;;5062139;28;20121;-53
2022/01/14 07:10:08;;;;;;;38.35;15.80;;;5.50;99.90;;;;;;5062425;28;20604;-51
2022/01/14 07:12:40;;;;;;;38.10;16.83;;;5.60;99.90;;;;;;5063407;28;20204;-54
2022/01/14 07:15:08;;;;;;;;;;;5.60;99.90;;;;;;5062813;28;20068;-54
2022/01/14 07:17:34;;;;;;;29.48;14.68;;;5.40;99.90;;;;;;5062332;28;21825;-52
2022/01/14 07:20:06;;;;;;;32.75;14.38;;;5.50;99.90;;;;;;5063063;28;20524;-54
2022/01/14 07:22:32;;;;;;;30.65;14.52;;;;;;;;;;5061274;28;20118;-53
2022/01/14 07:24:59;;;;;;;32.45;15.60;;;5.60;99.90;;;;;;5060952;28;20488;-54
2022/01/14 07:27:27;;;;;;;33.90;15.32;;;5.50;99.90;;;;;;5061991;28;20086;-52
2022/01/14 07:29:53;;;;;;;28.35;15.23;;;5.70;99.90;;;;;;5059741;28;20385;-49
2022/01/14 07:32:19;;;;;;;30.48;14.98;;;5.50;99.90;;;;;;5062307;28;20080;-53
2022/01/14 07:34:48;;;;;;;30.00;15.18;;;5.60;99.90;;;;;;5062413;28;20079;-52
2022/01/14 07:37:14;;;;;;;29.88;14.40;;;5.70;99.90;;;;;;5059254;28;20259;-52
2022/01/14 07:39:40;;;;;;;34.25;16.45;;;5.60;99.90;;;;;;5061460;28;20079;-53
2022/01/14 07:42:06;;;;;;;32.33;13.50;;;5.60;99.90;;;;;;5061846;28;20092;-53
2022/01/14 07:44:32;;;;;;;31.73;14.15;;;5.50;99.90;;;;;;5061256;28;20048;-51
2022/01/14 07:46:58;;;;;;;49.28;17.42;;;5.60;99.90;;;;;;5061391;28;20038;-51
2022/01/14 07:49:24;;;;;;;36.85;14.80;;;5.60;99.90;;;;;;5061890;28;20128;-54
2022/01/14 07:51:50;;;;;;;27.45;15.52;;;5.60;99.90;;;;;;5059913;28;20047;-54
2022/01/14 07:54:15;;;;;;;30.13;15.07;;;5.60;99.90;;;;;;5061036;28;20040;-54
2022/01/14 07:56:45;;;;;;;26.60;13.38;;;5.70;99.90;;;;;;5060467;28;20128;-51
2022/01/14 07:59:16;;;;;;;26.17;13.60;;;5.60;99.90;;;;;;5060361;28;20063;-54
2022/01/14 08:01:46;;;;;;;29.73;14.32;;;5.50;99.90;;;;;;5062270;28;20036;-53
2022/01/14 08:04:13;;;;;;;36.85;13.73;;;5.60;99.90;;;;;;5061151;28;20048;-54
2022/01/14 08:06:46;;;;;;;35.60;15.40;;;5.60;99.90;;;;;;5062507;28;20052;-53
2022/01/14 08:09:13;;;;;;;28.55;13.95;;;5.70;99.90;;;;;;5060431;28;20041;-52
2022/01/14 08:11:38;;;;;;;27.65;13.75;;;5.50;99.90;;;;;;5062288;28;20587;-52
2022/01/14 08:14:06;;;;;;;30.70;14.88;;;5.70;99.90;;;;;;5062054;28;20048;-53
2022/01/14 08:16:32;;;;;;;28.95;13.55;;;5.80;99.90;;;;;;5060274;28;20043;-51
2022/01/14 08:18:57;;;;;;;26.83;11.95;;;5.80;99.90;;;;;;5060671;28;20044;-52
2022/01/14 08:21:23;;;;;;;29.88;12.63;;;5.80;99.90;;;;;;5062033;28;20135;-52
2022/01/14 08:23:49;;;;;;;24.75;11.65;;;5.80;99.90;;;;;;5063527;28;20210;-53
2022/01/14 08:26:15;;;;;;;24.95;11.60;;;5.80;99.90;;;;;;5062593;28;20048;-51
2022/01/14 08:28:40;;;;;;;27.67;11.50;;;5.80;99.90;;;;;;5061265;28;20032;-49
2022/01/14 08:31:06;;;;;;;38.70;11.98;;;5.80;99.90;;;;;;5062833;28;20045;-52
2022/01/14 08:33:32;;;;;;;26.15;10.80;;;5.90;99.90;;;;;;5061508;28;20113;-54
2022/01/14 08:35:58;;;;;;;23.15;10.18;;;5.70;99.90;;;;;;5062736;28;20438;-52
2022/01/14 08:38:24;;;;;;;20.70;9.55;;;5.80;99.90;;;;;;5061971;28;20068;-53
2022/01/14 08:40:49;;;;;;;25.25;10.40;;;5.80;99.90;;;;;;5060987;28;20493;-54
2022/01/14 08:43:15;;;;;;;25.33;9.85;;;5.90;99.90;;;;;;5064040;28;20524;-53
2022/01/14 08:45:41;;;;;;;16.92;9.07;;;5.80;99.90;;;;;;5064593;28;20054;-53
2022/01/14 08:48:07;;;;;;;23.40;9.68;;;;;;;;;;5064891;28;20508;-53
2022/01/14 08:50:37;;;;;;;22.52;9.07;;;6.00;99.90;;;;;;5064890;28;20185;-53
2022/01/14 08:53:06;;;;;;;23.63;9.75;;;6.00;99.90;;;;;;5065688;28;20180;-56
2022/01/14 08:55:34;;;;;;;19.13;8.18;;;6.00;99.90;;;;;;5065398;28;20093;-54
2022/01/14 08:58:03;;;;;;;21.80;8.10;;;6.10;99.90;;;;;;5064395;28;20440;-51
2022/01/14 09:00:29;;;;;;;14.95;6.65;;;6.10;99.90;;;;;;5064371;28;20060;-52
2022/01/14 09:02:55;;;;;;;18.85;7.63;;;6.20;99.90;;;;;;5064885;28;20150;-53
2022/01/14 09:05:23;;;;;;;18.63;7.22;;;6.20;99.90;;;;;;5064559;28;20139;-52
2022/01/14 09:07:50;;;;;;;18.05;7.40;;;6.30;99.90;;;;;;5064377;28;20162;-53
2022/01/14 09:10:16;;;;;;;19.35;6.38;;;6.40;99.90;;;;;;5065416;28;20040;-51
2022/01/14 09:12:42;;;;;;;19.23;6.47;;;6.20;99.90;;;;;;5062759;28;20042;-50
2022/01/14 09:15:09;;;;;;;20.23;7.32;;;6.30;99.90;;;;;;5064523;28;20037;-53
2022/01/14 09:17:36;;;;;;;19.15;6.40;;;6.40;99.90;;;;;;5063760;28;20532;-53
2022/01/14 09:20:04;;;;;;;19.75;7.15;;;6.40;99.90;;;;;;5065045;28;20036;-56
2022/01/14 09:22:31;;;;;;;14.05;5.80;;;6.50;99.90;;;;;;5065787;28;20037;-55
2022/01/14 09:24:59;;;;;;;17.23;6.38;;;6.40;99.90;;;;;;5063789;28;20097;-51
2022/01/14 09:27:26;;;;;;;24.30;5.75;;;6.80;99.90;;;;;;5064549;28;20052;-52
2022/01/14 09:29:54;;;;;;;15.75;6.53;;;6.60;99.90;;;;;;5064155;28;20041;-50
2022/01/14 09:32:20;;;;;;;16.95;5.28;;;6.70;99.90;;;;;;5065520;28;20123;-49
2022/01/14 09:34:46;;;;;;;14.65;5.65;;;6.60;99.90;;;;;;5065796;28;20052;-53
2022/01/14 09:37:12;;;;;;;13.85;4.70;;;6.70;99.90;;;;;;5064802;28;20093;-53
2022/01/14 09:39:42;;;;;;;11.57;4.40;;;7.50;99.90;;;;;;5064914;28;20029;-52
2022/01/14 09:42:11;;;;;;;18.63;5.90;;;6.70;99.90;;;;;;5064788;28;20557;-50
2022/01/14 09:44:37;;;;;;;22.23;5.10;;;6.70;99.90;;;;;;5064326;28;20028;-53
2022/01/14 09:47:03;;;;;;;19.27;4.20;;;6.80;99.90;;;;;;5065950;28;20043;-54
2022/01/14 09:49:29;;;;;;;14.05;5.32;;;6.90;99.90;;;;;;5063648;28;20525;-54
2022/01/14 09:51:55;;;;;;;18.83;5.43;;;6.90;99.90;;;;;;5064081;28;20068;-54
2022/01/14 09:54:21;;;;;;;18.55;5.38;;;6.90;99.90;;;;;;5065637;28;20107;-53
2022/01/14 09:56:49;;;;;;;18.63;5.78;;;7.00;99.90;;;;;;5064757;28;20080;-52
2022/01/14 09:59:18;;;;;;;20.85;5.28;;;8.10;99.90;;;;;;5063397;28;20398;-53
2022/01/14 10:01:46;;;;;;;23.60;4.97;;;7.00;99.90;;;;;;5063841;28;20055;-52
2022/01/14 10:04:20;;;;;;;16.50;4.57;;;6.90;99.90;;;;;;5061845;28;20098;-54
2022/01/14 10:06:47;;;;;;;18.67;5.05;;;6.90;99.90;;;;;;5061984;28;20131;-53
2022/01/14 10:09:22;;;;;;;12.40;3.42;;;7.00;99.90;;;;;;5063481;28;20040;-53
2022/01/14 10:12:08;;;;;;;12.88;3.20;;;6.90;99.90;;;;;;5063781;28;20374;-54
2022/01/14 10:14:37;;;;;;;14.82;3.25;;;6.90;99.90;;;;;;5062830;28;20059;-51
2022/01/14 10:17:08;;;;;;;13.60;3.15;;;7.10;99.90;;;;;;5063452;28;20588;-56
2022/01/14 10:19:43;;;;;;;15.15;2.85;;;7.10;99.90;;;;;;5062109;28;20047;-53
2022/01/14 10:22:19;;;;;;;16.38;3.17;;;7.10;99.90;;;;;;5062680;28;20044;-53
2022/01/14 10:25:20;;;;;;;14.10;4.43;;;7.00;99.90;;;;;;5062139;28;20121;-54
2022/01/14 10:27:48;;;;;;;14.80;3.40;;;7.00;99.90;;;;;;5060092;28;20049;-51
2022/01/14 10:30:19;;;;;;;14.65;3.50;;;7.60;99.90;;;;;;5061567;28;20064;-52
2022/01/14 10:32:54;;;;;;;16.90;3.35;;;7.00;99.90;;;;;;5060400;28;20045;-52
2022/01/14 10:35:23;;;;;;;13.52;3.60;;;7.00;99.90;;;;;;5061602;28;20794;-55
2022/01/14 10:37:48;;;;;;;12.57;4.13;;;7.10;99.90;;;;;;5062344;28;20033;-50
2022/01/14 10:40:21;;;;;;;18.30;3.50;;;7.80;99.90;;;;;;5061916;28;20321;-52
2022/01/14 10:42:50;;;;;;;14.95;2.97;;;7.10;99.90;;;;;;5061919;28;20036;-49
2022/01/14 10:45:27;;;;;;;18.08;4.72;;;7.10;99.90;;;;;;5062099;28;20067;-49
2022/01/14 10:48:01;;;;;;;15.35;3.70;;;7.00;99.90;;;;;;5062210;28;20397;-53
2022/01/14 10:50:45;;;;;;;12.88;3.42;;;6.90;99.90;;;;;;5059624;28;20036;-52
2022/01/14 10:53:31;;;;;;;11.68;3.70;;;6.90;99.90;;;;;;5061961;28;20090;-50
2022/01/14 10:56:03;;;;;;;15.82;3.53;;;7.90;99.90;;;;;;5062654;28;20606;-52
2022/01/14 10:58:34;;;;;;;15.50;3.63;;;5.00;99.90;;;;;;5062943;28;20039;-48
2022/01/14 11:01:02;;;;;;;20.23;4.80;;;7.10;99.90;;;;;;5061605;28;20114;-50
2022/01/14 11:03:37;;;;;;;17.05;3.60;;;7.10;99.90;;;;;;5062524;28;20033;-53
2022/01/14 11:06:23;;;;;;;13.82;3.92;;;7.40;99.90;;;;;;5060192;28;20393;-54
2022/01/14 11:08:57;;;;;;;20.02;5.00;;;7.10;99.90;;;;;;5061005;28;20106;-50
2022/01/14 11:11:24;;;;;;;19.40;4.80;;;7.10;99.90;;;;;;5061875;28;20068;-52
2022/01/14 11:13:50;;;;;;;18.55;4.00;;;7.00;99.90;;;;;;5062679;28;20098;-52
2022/01/14 11:16:16;;;;;;;19.80;7.07;;;7.00;99.90;;;;;;5063489;28;20064;-52
2022/01/14 11:18:44;;;;;;;17.60;4.20;;;7.10;99.90;;;;;;5062309;28;20068;-53
2022/01/14 11:23:58;;;;;;;21.13;4.72;;;7.00;99.90;;;;;;5062259;28;20052;-53
2022/01/14 11:26:29;;;;;;;22.88;4.90;;;6.90;99.90;;;;;;5062378;28;20032;-53
2022/01/14 11:29:01;;;;;;;17.02;4.07;;;7.10;99.90;;;;;;5061345;28;20041;-52
2022/01/14 11:31:35;;;;;;;17.10;4.85;;;7.10;99.90;;;;;;5062199;28;20036;-53
2022/01/14 11:34:02;;;;;;;18.38;4.15;;;7.10;99.90;;;;;;5059950;28;20040;-50
2022/01/14 11:36:50;;;;;;;20.33;4.15;;;6.80;99.90;;;;;;5062428;28;20064;-53
2022/01/14 11:39:21;;;;;;;21.95;4.22;;;7.00;99.90;;;;;;5061532;28;20123;-48
2022/01/14 11:42:14;;;;;;;16.55;3.88;;;7.70;99.90;;;;;;5062091;28;20036;-52
2022/01/14 11:44:42;;;;;;;;;;;7.00;99.90;;;;;;5061969;28;20036;-53
2022/01/14 11:47:41;;;;;;;24.13;4.13;;;7.20;99.90;;;;;;5061191;28;19936;-52
2022/01/14 11:50:27;;;;;;;16.38;4.75;;;7.20;99.90;;;;;;5061530;28;20048;-49
2022/01/14 11:52:53;;;;;;;16.05;4.97;;;7.90;99.90;;;;;;5061661;28;20040;-47
2022/01/14 11:55:22;;;;;;;25.27;5.57;;;7.00;99.90;;;;;;5060938;28;20039;-48
2022/01/14 11:57:57;;;;;;;15.70;4.88;;;7.10;99.90;;;;;;5061227;28;20032;-54
2022/01/14 12:00:47;;;;;;;15.50;3.42;;;7.30;99.90;;;;;;5061563;28;20056;-52
2022/01/14 12:03:32;;;;;;;19.67;3.88;;;7.00;99.90;;;;;;5060706;28;20055;-51
2022/01/14 12:06:07;;;;;;;21.80;4.38;;;7.20;99.90;;;;;;5018826;28;20753;-51
2022/01/14 12:08:39;;;;;;;16.75;4.35;;;7.20;99.90;;;;;;5017198;28;20658;-53
2022/01/14 12:11:05;;;;;;;16.38;4.30;;;6.30;99.90;;;;;;5019100;28;20191;-53
2022/01/14 12:13:50;;;;;;;25.20;4.93;;;8.40;99.90;;;;;;5016705;28;20037;-53
2022/01/14 12:18:59;;;;;;;17.23;4.80;;;7.10;99.90;;;;;;5038496;28;20073;-49
2022/01/14 12:21:43;;;;;;;21.02;4.05;;;8.20;99.90;;;;;;5022358;28;20076;-47
2022/01/14 12:24:38;;;;;;;20.13;3.97;;;7.40;99.90;;;;;;5023984;28;20056;-50
2022/01/14 12:27:05;;;;;;;18.27;5.00;;;7.20;99.90;;;;;;4945580;29;20387;-50
2022/01/14 12:29:34;;;;;;;19.25;4.38;;;7.40;99.90;;;;;;4943107;28;20137;-52
2022/01/14 12:32:10;;;;;;;17.63;5.65;;;7.20;99.90;;;;;;4944932;29;20097;-48
2022/01/14 12:34:40;;;;;;;20.08;4.88;;;7.80;99.90;;;;;;4943381;29;20043;-48
2022/01/14 12:37:10;;;;;;;21.77;6.60;;;8.20;99.90;;;;;;4944091;28;21257;-53
2022/01/14 12:39:38;;;;;;;20.77;4.80;;;7.40;99.90;;;;;;4945577;29;20074;-51
2022/01/14 12:42:04;;;;;;;19.92;4.47;;;7.40;99.90;;;;;;4947817;28;20039;-49
2022/01/14 12:44:30;;;;;;;30.13;6.97;;;7.20;99.90;;;;;;5003105;28;20121;-53
2022/01/14 12:47:09;;;;;;;17.83;4.88;;;7.40;99.90;;;;;;5001389;28;20117;-52
2022/01/14 12:49:36;;;;;;;23.65;5.72;;;7.40;99.90;;;;;;5002482;28;20120;-51
2022/01/14 12:52:03;;;;;;;23.98;5.47;;;7.30;99.90;;;;;;5002296;28;20158;-51
2022/01/14 12:54:31;;;;;;;24.13;5.05;;;7.20;99.90;;;;;;5001914;28;20204;-52
2022/01/14 12:56:58;;;;;;;29.35;5.82;;;7.30;99.90;;;;;;5002679;28;20607;-49
2022/01/14 12:59:25;;;;;;;18.83;4.80;;;7.30;99.90;;;;;;5002224;28;20085;-51
2022/01/14 13:01:55;;;;;;;26.35;4.57;;;7.30;99.90;;;;;;5002437;28;20584;-53
2022/01/14 13:04:23;;;;;;;26.00;5.38;;;8.60;99.90;;;;;;5052658;28;20049;-52
2022/01/14 13:07:01;;;;;;;21.40;5.40;;;7.20;99.90;;;;;;5063584;28;20040;-52
2022/01/14 13:09:30;;;;;;;25.10;5.22;;;7.30;99.90;;;;;;5062997;28;20036;-51
2022/01/14 13:12:02;;;;;;;22.30;6.05;;;7.20;99.90;;;;;;5063745;28;20127;-50
2022/01/14 13:14:30;;;;;;;;;;;7.30;99.90;;;;;;5062317;28;20338;-51
2022/01/14 13:16:58;;;;;;;24.92;5.35;;;7.30;99.90;;;;;;5062871;28;19935;-53
2022/01/14 13:19:33;;;;;;;23.83;6.15;;;7.70;99.90;;;;;;5063960;28;20378;-53